sensor_id;sensor_type;location;lat;lon;timestamp;P1;durP1;ratioP1;P2;durP2;ratioP2
77581;SDS011;66726;52.388;9.986;2023-05-23T00:00:57;16.47;;;14.97;;
77581;SDS011;66726;52.388;9.986;2023-05-23T00:03:33;15.53;;;14.13;;
77581;SDS011;66726;52.388;9.986;2023-05-23T00:06:07;16.90;;;14.93;;
77581;SDS011;66726;52.388;9.986;2023-05-23T00:08:41;14.97;;;13.57;;
77581;SDS011;66726;52.388;9.986;2023-05-23T00:11:15;16.30;;;14.77;;
77581;SDS011;66726;52.388;9.986;2023-05-23T00:13:53;17.17;;;15.40;;
77581;SDS011;66726;52.388;9.986;2023-05-23T00:16:28;17.63;;;15.87;;
77581;SDS011;66726;52.388;9.986;2023-05-23T00:19:02;16.93;;;15.17;;
77581;SDS011;66726;52.388;9.986;2023-05-23T00:21:36;17.97;;;16.20;;
77581;SDS011;66726;52.388;9.986;2023-05-23T00:24:10;16.83;;;15.23;;
77581;SDS011;66726;52.388;9.986;2023-05-23T00:26:45;17.40;;;15.67;;
77581;SDS011;66726;52.388;9.986;2023-05-23T00:29:19;17.53;;;16.00;;
77581;SDS011;66726;52.388;9.986;2023-05-23T00:31:52;18.53;;;16.93;;
77581;SDS011;66726;52.388;9.986;2023-05-23T00:34:25;17.43;;;15.73;;
77581;SDS011;66726;52.388;9.986;2023-05-23T00:36:59;17.67;;;15.97;;
77581;SDS011;66726;52.388;9.986;2023-05-23T00:39:33;18.43;;;16.43;;
77581;SDS011;66726;52.388;9.986;2023-05-23T00:42:07;18.70;;;16.83;;
77581;SDS011;66726;52.388;9.986;2023-05-23T00:44:40;18.80;;;16.80;;
77581;SDS011;66726;52.388;9.986;2023-05-23T00:47:15;19.70;;;17.60;;
77581;SDS011;66726;52.388;9.986;2023-05-23T00:49:49;18.77;;;16.77;;
77581;SDS011;66726;52.388;9.986;2023-05-23T00:52:22;19.47;;;17.67;;
77581;SDS011;66726;52.388;9.986;2023-05-23T00:54:56;20.47;;;18.50;;
77581;SDS011;66726;52.388;9.986;2023-05-23T00:57:30;21.17;;;18.97;;
77581;SDS011;66726;52.388;9.986;2023-05-23T01:00:07;20.20;;;18.10;;
77581;SDS011;66726;52.388;9.986;2023-05-23T01:02:45;22.60;;;19.97;;
77581;SDS011;66726;52.388;9.986;2023-05-23T01:05:21;21.00;;;18.87;;
77581;SDS011;66726;52.388;9.986;2023-05-23T01:07:54;20.57;;;18.47;;
77581;SDS011;66726;52.388;9.986;2023-05-23T01:10:30;19.77;;;17.87;;
77581;SDS011;66726;52.388;9.986;2023-05-23T01:13:12;20.30;;;18.27;;
77581;SDS011;66726;52.388;9.986;2023-05-23T01:16:00;21.07;;;18.87;;
77581;SDS011;66726;52.388;9.986;2023-05-23T01:18:42;23.57;;;21.17;;
77581;SDS011;66726;52.388;9.986;2023-05-23T01:21:25;21.27;;;19.17;;
77581;SDS011;66726;52.388;9.986;2023-05-23T01:24:14;21.67;;;19.50;;
77581;SDS011;66726;52.388;9.986;2023-05-23T01:27:15;31.03;;;27.83;;
77581;SDS011;66726;52.388;9.986;2023-05-23T01:30:09;30.53;;;27.43;;
77581;SDS011;66726;52.388;9.986;2023-05-23T01:32:49;39.43;;;34.23;;
77581;SDS011;66726;52.388;9.986;2023-05-23T01:35:25;42.43;;;35.43;;
77581;SDS011;66726;52.388;9.986;2023-05-23T01:37:59;45.73;;;40.87;;
77581;SDS011;66726;52.388;9.986;2023-05-23T01:40:33;51.37;;;45.77;;
77581;SDS011;66726;52.388;9.986;2023-05-23T01:43:06;54.90;;;45.97;;
77581;SDS011;66726;52.388;9.986;2023-05-23T01:45:40;56.53;;;47.80;;
77581;SDS011;66726;52.388;9.986;2023-05-23T01:48:14;52.07;;;46.53;;
77581;SDS011;66726;52.388;9.986;2023-05-23T01:50:50;59.30;;;49.40;;
77581;SDS011;66726;52.388;9.986;2023-05-23T01:53:26;58.10;;;47.90;;
77581;SDS011;66726;52.388;9.986;2023-05-23T01:56:02;54.93;;;48.83;;
77581;SDS011;66726;52.388;9.986;2023-05-23T01:58:35;53.60;;;47.23;;
77581;SDS011;66726;52.388;9.986;2023-05-23T02:01:10;51.90;;;43.57;;
77581;SDS011;66726;52.388;9.986;2023-05-23T02:03:45;53.70;;;47.83;;
77581;SDS011;66726;52.388;9.986;2023-05-23T02:06:18;55.83;;;46.37;;
77581;SDS011;66726;52.388;9.986;2023-05-23T02:08:51;49.93;;;44.53;;
77581;SDS011;66726;52.388;9.986;2023-05-23T02:11:25;54.17;;;42.50;;
77581;SDS011;66726;52.388;9.986;2023-05-23T02:13:58;42.63;;;38.07;;
77581;SDS011;66726;52.388;9.986;2023-05-23T02:16:31;40.07;;;35.90;;
77581;SDS011;66726;52.388;9.986;2023-05-23T02:19:05;39.20;;;35.13;;
77581;SDS011;66726;52.388;9.986;2023-05-23T02:21:38;36.63;;;32.73;;
77581;SDS011;66726;52.388;9.986;2023-05-23T02:24:11;36.57;;;32.77;;
77581;SDS011;66726;52.388;9.986;2023-05-23T02:26:45;34.23;;;30.43;;
77581;SDS011;66726;52.388;9.986;2023-05-23T02:29:19;32.23;;;29.20;;
77581;SDS011;66726;52.388;9.986;2023-05-23T02:31:53;31.80;;;28.60;;
77581;SDS011;66726;52.388;9.986;2023-05-23T02:34:26;31.13;;;27.73;;
77581;SDS011;66726;52.388;9.986;2023-05-23T02:37:00;30.87;;;27.80;;
77581;SDS011;66726;52.388;9.986;2023-05-23T02:39:35;31.00;;;27.40;;
77581;SDS011;66726;52.388;9.986;2023-05-23T02:42:08;29.57;;;25.13;;
77581;SDS011;66726;52.388;9.986;2023-05-23T02:44:42;26.70;;;24.13;;
77581;SDS011;66726;52.388;9.986;2023-05-23T02:47:15;26.37;;;23.60;;
77581;SDS011;66726;52.388;9.986;2023-05-23T02:49:49;24.53;;;22.13;;
77581;SDS011;66726;52.388;9.986;2023-05-23T02:52:23;24.57;;;22.03;;
77581;SDS011;66726;52.388;9.986;2023-05-23T02:54:56;23.80;;;21.40;;
77581;SDS011;66726;52.388;9.986;2023-05-23T02:57:30;24.37;;;21.83;;
77581;SDS011;66726;52.388;9.986;2023-05-23T03:00:03;25.57;;;22.97;;
77581;SDS011;66726;52.388;9.986;2023-05-23T03:02:40;25.33;;;22.47;;
77581;SDS011;66726;52.388;9.986;2023-05-23T03:05:14;24.47;;;21.93;;
77581;SDS011;66726;52.388;9.986;2023-05-23T03:07:47;25.33;;;21.43;;
77581;SDS011;66726;52.388;9.986;2023-05-23T03:10:21;24.10;;;21.77;;
77581;SDS011;66726;52.388;9.986;2023-05-23T03:12:55;23.57;;;21.17;;
77581;SDS011;66726;52.388;9.986;2023-05-23T03:15:28;26.77;;;22.43;;
77581;SDS011;66726;52.388;9.986;2023-05-23T03:18:01;24.20;;;21.53;;
77581;SDS011;66726;52.388;9.986;2023-05-23T03:20:35;25.57;;;22.77;;
77581;SDS011;66726;52.388;9.986;2023-05-23T03:23:09;25.33;;;21.63;;
77581;SDS011;66726;52.388;9.986;2023-05-23T03:25:42;23.90;;;21.43;;
77581;SDS011;66726;52.388;9.986;2023-05-23T03:28:15;24.77;;;20.27;;
77581;SDS011;66726;52.388;9.986;2023-05-23T03:30:48;24.30;;;21.50;;
77581;SDS011;66726;52.388;9.986;2023-05-23T03:33:22;24.20;;;21.40;;
77581;SDS011;66726;52.388;9.986;2023-05-23T03:35:55;23.90;;;21.37;;
77581;SDS011;66726;52.388;9.986;2023-05-23T03:38:29;22.93;;;18.50;;
77581;SDS011;66726;52.388;9.986;2023-05-23T03:41:02;22.90;;;20.30;;
77581;SDS011;66726;52.388;9.986;2023-05-23T03:43:36;23.27;;;20.90;;
77581;SDS011;66726;52.388;9.986;2023-05-23T03:46:09;23.67;;;21.23;;
77581;SDS011;66726;52.388;9.986;2023-05-23T03:48:43;23.90;;;21.43;;
77581;SDS011;66726;52.388;9.986;2023-05-23T03:51:16;24.37;;;21.13;;
77581;SDS011;66726;52.388;9.986;2023-05-23T03:53:51;25.80;;;22.70;;
77581;SDS011;66726;52.388;9.986;2023-05-23T03:56:25;24.90;;;22.30;;
77581;SDS011;66726;52.388;9.986;2023-05-23T03:58:58;24.27;;;21.57;;
77581;SDS011;66726;52.388;9.986;2023-05-23T04:01:31;25.27;;;22.60;;
77581;SDS011;66726;52.388;9.986;2023-05-23T04:04:06;23.60;;;21.10;;
77581;SDS011;66726;52.388;9.986;2023-05-23T04:06:40;24.17;;;21.33;;
77581;SDS011;66726;52.388;9.986;2023-05-23T04:09:14;22.90;;;20.57;;
77581;SDS011;66726;52.388;9.986;2023-05-23T04:11:47;20.93;;;18.73;;
77581;SDS011;66726;52.388;9.986;2023-05-23T04:14:21;23.47;;;21.17;;
77581;SDS011;66726;52.388;9.986;2023-05-23T04:16:54;22.83;;;20.63;;
77581;SDS011;66726;52.388;9.986;2023-05-23T04:19:28;23.70;;;20.97;;
77581;SDS011;66726;52.388;9.986;2023-05-23T04:22:02;23.77;;;20.77;;
77581;SDS011;66726;52.388;9.986;2023-05-23T04:24:35;23.27;;;20.30;;
77581;SDS011;66726;52.388;9.986;2023-05-23T04:27:09;23.30;;;21.00;;
77581;SDS011;66726;52.388;9.986;2023-05-23T04:29:42;24.50;;;21.77;;
77581;SDS011;66726;52.388;9.986;2023-05-23T04:32:16;24.27;;;21.20;;
77581;SDS011;66726;52.388;9.986;2023-05-23T04:34:50;24.33;;;21.73;;
77581;SDS011;66726;52.388;9.986;2023-05-23T04:37:25;22.57;;;19.67;;
77581;SDS011;66726;52.388;9.986;2023-05-23T04:39:59;22.40;;;20.07;;
77581;SDS011;66726;52.388;9.986;2023-05-23T04:42:34;22.73;;;20.53;;
77581;SDS011;66726;52.388;9.986;2023-05-23T04:45:10;21.53;;;19.20;;
77581;SDS011;66726;52.388;9.986;2023-05-23T04:47:43;21.87;;;18.07;;
77581;SDS011;66726;52.388;9.986;2023-05-23T04:50:17;21.63;;;18.73;;
77581;SDS011;66726;52.388;9.986;2023-05-23T04:52:50;18.93;;;17.00;;
77581;SDS011;66726;52.388;9.986;2023-05-23T04:55:24;18.23;;;16.43;;
77581;SDS011;66726;52.388;9.986;2023-05-23T04:57:58;18.60;;;16.33;;
77581;SDS011;66726;52.388;9.986;2023-05-23T05:00:31;17.83;;;15.97;;
77581;SDS011;66726;52.388;9.986;2023-05-23T05:03:04;19.03;;;16.03;;
77581;SDS011;66726;52.388;9.986;2023-05-23T05:05:38;17.03;;;14.80;;
77581;SDS011;66726;52.388;9.986;2023-05-23T05:08:12;17.87;;;15.77;;
77581;SDS011;66726;52.388;9.986;2023-05-23T05:10:46;19.03;;;15.87;;
77581;SDS011;66726;52.388;9.986;2023-05-23T05:13:20;18.20;;;15.83;;
77581;SDS011;66726;52.388;9.986;2023-05-23T05:15:53;15.93;;;14.20;;
77581;SDS011;66726;52.388;9.986;2023-05-23T05:18:26;17.50;;;15.60;;
77581;SDS011;66726;52.388;9.986;2023-05-23T05:21:02;19.83;;;15.83;;
77581;SDS011;66726;52.388;9.986;2023-05-23T05:23:35;19.23;;;15.23;;
77581;SDS011;66726;52.388;9.986;2023-05-23T05:26:09;18.40;;;15.40;;
77581;SDS011;66726;52.388;9.986;2023-05-23T05:28:42;16.80;;;14.40;;
77581;SDS011;66726;52.388;9.986;2023-05-23T05:31:16;18.67;;;14.30;;
77581;SDS011;66726;52.388;9.986;2023-05-23T05:33:49;17.97;;;14.20;;
77581;SDS011;66726;52.388;9.986;2023-05-23T05:36:23;16.93;;;14.90;;
77581;SDS011;66726;52.388;9.986;2023-05-23T05:38:56;18.67;;;16.07;;
77581;SDS011;66726;52.388;9.986;2023-05-23T05:41:29;20.47;;;14.60;;
77581;SDS011;66726;52.388;9.986;2023-05-23T05:44:03;17.60;;;14.70;;
77581;SDS011;66726;52.388;9.986;2023-05-23T05:46:37;20.97;;;15.10;;
77581;SDS011;66726;52.388;9.986;2023-05-23T05:49:10;19.00;;;16.33;;
77581;SDS011;66726;52.388;9.986;2023-05-23T05:51:44;19.47;;;16.23;;
77581;SDS011;66726;52.388;9.986;2023-05-23T05:54:18;17.87;;;15.50;;
77581;SDS011;66726;52.388;9.986;2023-05-23T05:56:52;19.17;;;15.53;;
77581;SDS011;66726;52.388;9.986;2023-05-23T05:59:25;16.60;;;14.83;;
77581;SDS011;66726;52.388;9.986;2023-05-23T06:01:59;16.97;;;13.83;;
77581;SDS011;66726;52.388;9.986;2023-05-23T06:04:33;15.70;;;13.60;;
77581;SDS011;66726;52.388;9.986;2023-05-23T06:07:06;14.07;;;12.57;;
77581;SDS011;66726;52.388;9.986;2023-05-23T06:09:40;14.23;;;12.33;;
77581;SDS011;66726;52.388;9.986;2023-05-23T06:12:13;13.27;;;11.97;;
77581;SDS011;66726;52.388;9.986;2023-05-23T06:14:46;12.80;;;11.60;;
77581;SDS011;66726;52.388;9.986;2023-05-23T06:17:20;14.20;;;12.70;;
77581;SDS011;66726;52.388;9.986;2023-05-23T06:19:53;14.37;;;12.83;;
77581;SDS011;66726;52.388;9.986;2023-05-23T06:22:27;12.40;;;11.20;;
77581;SDS011;66726;52.388;9.986;2023-05-23T06:25:00;14.17;;;12.33;;
77581;SDS011;66726;52.388;9.986;2023-05-23T06:27:35;13.77;;;12.03;;
77581;SDS011;66726;52.388;9.986;2023-05-23T06:30:09;12.17;;;11.07;;
77581;SDS011;66726;52.388;9.986;2023-05-23T06:32:45;12.93;;;11.63;;
77581;SDS011;66726;52.388;9.986;2023-05-23T06:35:18;13.40;;;12.07;;
77581;SDS011;66726;52.388;9.986;2023-05-23T06:37:51;12.10;;;10.90;;
77581;SDS011;66726;52.388;9.986;2023-05-23T06:40:24;13.37;;;12.03;;
77581;SDS011;66726;52.388;9.986;2023-05-23T06:42:58;13.20;;;11.80;;
77581;SDS011;66726;52.388;9.986;2023-05-23T06:45:31;13.77;;;12.37;;
77581;SDS011;66726;52.388;9.986;2023-05-23T06:48:05;15.27;;;12.20;;
77581;SDS011;66726;52.388;9.986;2023-05-23T06:50:39;13.33;;;12.03;;
77581;SDS011;66726;52.388;9.986;2023-05-23T06:53:12;13.67;;;12.27;;
77581;SDS011;66726;52.388;9.986;2023-05-23T06:55:46;13.60;;;12.27;;
77581;SDS011;66726;52.388;9.986;2023-05-23T06:58:20;12.77;;;11.20;;
77581;SDS011;66726;52.388;9.986;2023-05-23T07:00:55;13.70;;;12.30;;
77581;SDS011;66726;52.388;9.986;2023-05-23T07:03:28;13.13;;;11.83;;
77581;SDS011;66726;52.388;9.986;2023-05-23T07:06:01;13.00;;;11.47;;
77581;SDS011;66726;52.388;9.986;2023-05-23T07:08:35;13.27;;;11.50;;
77581;SDS011;66726;52.388;9.986;2023-05-23T07:11:08;12.33;;;11.07;;
77581;SDS011;66726;52.388;9.986;2023-05-23T07:13:42;11.67;;;10.47;;
77581;SDS011;66726;52.388;9.986;2023-05-23T07:16:15;11.53;;;10.43;;
77581;SDS011;66726;52.388;9.986;2023-05-23T07:18:49;11.73;;;9.60;;
77581;SDS011;66726;52.388;9.986;2023-05-23T07:21:22;11.30;;;10.17;;
77581;SDS011;66726;52.388;9.986;2023-05-23T07:23:55;11.37;;;9.37;;
77581;SDS011;66726;52.388;9.986;2023-05-23T07:26:28;10.10;;;9.10;;
77581;SDS011;66726;52.388;9.986;2023-05-23T07:29:02;8.43;;;7.63;;
77581;SDS011;66726;52.388;9.986;2023-05-23T07:31:35;8.27;;;7.47;;
77581;SDS011;66726;52.388;9.986;2023-05-23T07:34:09;7.27;;;6.60;;
77581;SDS011;66726;52.388;9.986;2023-05-23T07:36:42;7.03;;;6.33;;
77581;SDS011;66726;52.388;9.986;2023-05-23T07:39:17;6.23;;;5.33;;
77581;SDS011;66726;52.388;9.986;2023-05-23T07:41:51;6.80;;;6.10;;
77581;SDS011;66726;52.388;9.986;2023-05-23T07:44:24;6.57;;;5.67;;
77581;SDS011;66726;52.388;9.986;2023-05-23T07:46:58;5.80;;;5.30;;
77581;SDS011;66726;52.388;9.986;2023-05-23T07:49:32;6.93;;;5.80;;
77581;SDS011;66726;52.388;9.986;2023-05-23T07:52:05;6.40;;;5.80;;
77581;SDS011;66726;52.388;9.986;2023-05-23T07:54:38;6.97;;;5.83;;
77581;SDS011;66726;52.388;9.986;2023-05-23T07:57:12;7.33;;;6.63;;
77581;SDS011;66726;52.388;9.986;2023-05-23T07:59:45;8.47;;;7.67;;
77581;SDS011;66726;52.388;9.986;2023-05-23T08:02:19;9.70;;;8.70;;
77581;SDS011;66726;52.388;9.986;2023-05-23T08:04:53;9.93;;;8.93;;
77581;SDS011;66726;52.388;9.986;2023-05-23T08:07:26;12.63;;;10.73;;
77581;SDS011;66726;52.388;9.986;2023-05-23T08:10:00;14.07;;;12.40;;
77581;SDS011;66726;52.388;9.986;2023-05-23T08:12:34;15.00;;;13.23;;
77581;SDS011;66726;52.388;9.986;2023-05-23T08:15:08;15.40;;;13.70;;
77581;SDS011;66726;52.388;9.986;2023-05-23T08:17:42;16.63;;;14.83;;
77581;SDS011;66726;52.388;9.986;2023-05-23T08:20:16;16.10;;;14.27;;
77581;SDS011;66726;52.388;9.986;2023-05-23T08:22:49;17.93;;;15.03;;
77581;SDS011;66726;52.388;9.986;2023-05-23T08:25:25;17.73;;;13.87;;
77581;SDS011;66726;52.388;9.986;2023-05-23T08:27:59;15.77;;;13.80;;
77581;SDS011;66726;52.388;9.986;2023-05-23T08:30:32;14.97;;;13.10;;
77581;SDS011;66726;52.388;9.986;2023-05-23T08:33:06;15.43;;;13.20;;
77581;SDS011;66726;52.388;9.986;2023-05-23T08:35:40;16.47;;;14.47;;
77581;SDS011;66726;52.388;9.986;2023-05-23T08:38:13;15.33;;;12.97;;
77581;SDS011;66726;52.388;9.986;2023-05-23T08:40:50;19.13;;;13.67;;
77581;SDS011;66726;52.388;9.986;2023-05-23T08:43:28;18.23;;;13.63;;
77581;SDS011;66726;52.388;9.986;2023-05-23T08:46:02;20.13;;;14.83;;
77581;SDS011;66726;52.388;9.986;2023-05-23T08:48:36;20.27;;;13.83;;
77581;SDS011;66726;52.388;9.986;2023-05-23T08:51:14;18.93;;;14.83;;
77581;SDS011;66726;52.388;9.986;2023-05-23T08:53:49;17.60;;;14.17;;
77581;SDS011;66726;52.388;9.986;2023-05-23T08:56:24;20.17;;;14.63;;
77581;SDS011;66726;52.388;9.986;2023-05-23T08:58:58;18.90;;;14.60;;
77581;SDS011;66726;52.388;9.986;2023-05-23T09:01:32;17.03;;;14.40;;
77581;SDS011;66726;52.388;9.986;2023-05-23T09:04:08;16.37;;;13.30;;
77581;SDS011;66726;52.388;9.986;2023-05-23T09:06:42;18.13;;;14.80;;
77581;SDS011;66726;52.388;9.986;2023-05-23T09:09:16;19.37;;;13.93;;
77581;SDS011;66726;52.388;9.986;2023-05-23T09:11:49;18.90;;;14.07;;
77581;SDS011;66726;52.388;9.986;2023-05-23T09:14:26;17.57;;;14.23;;
77581;SDS011;66726;52.388;9.986;2023-05-23T09:17:02;21.50;;;14.10;;
77581;SDS011;66726;52.388;9.986;2023-05-23T09:19:41;21.33;;;13.33;;
77581;SDS011;66726;52.388;9.986;2023-05-23T09:22:14;22.87;;;14.37;;
77581;SDS011;66726;52.388;9.986;2023-05-23T09:24:54;19.23;;;12.67;;
77581;SDS011;66726;52.388;9.986;2023-05-23T09:27:28;16.87;;;12.83;;
77581;SDS011;66726;52.388;9.986;2023-05-23T09:30:06;19.83;;;12.63;;
77581;SDS011;66726;52.388;9.986;2023-05-23T09:32:42;15.03;;;10.33;;
77581;SDS011;66726;52.388;9.986;2023-05-23T09:35:32;15.23;;;9.73;;
77581;SDS011;66726;52.388;9.986;2023-05-23T09:38:11;17.23;;;10.50;;
77581;SDS011;66726;52.388;9.986;2023-05-23T09:40:44;16.03;;;9.27;;
77581;SDS011;66726;52.388;9.986;2023-05-23T09:43:18;14.17;;;9.83;;
77581;SDS011;66726;52.388;9.986;2023-05-23T09:45:54;12.03;;;8.53;;
77581;SDS011;66726;52.388;9.986;2023-05-23T09:48:35;14.43;;;9.30;;
77581;SDS011;66726;52.388;9.986;2023-05-23T09:51:14;16.77;;;9.33;;
77581;SDS011;66726;52.388;9.986;2023-05-23T09:53:52;14.90;;;9.13;;
77581;SDS011;66726;52.388;9.986;2023-05-23T09:56:25;12.07;;;8.50;;
77581;SDS011;66726;52.388;9.986;2023-05-23T09:59:01;13.23;;;9.23;;
77581;SDS011;66726;52.388;9.986;2023-05-23T10:01:38;13.90;;;9.77;;
77581;SDS011;66726;52.388;9.986;2023-05-23T10:04:15;15.20;;;9.97;;
77581;SDS011;66726;52.388;9.986;2023-05-23T10:07:00;17.67;;;9.47;;
77581;SDS011;66726;52.388;9.986;2023-05-23T10:09:44;16.23;;;8.77;;
77581;SDS011;66726;52.388;9.986;2023-05-23T10:15:19;15.03;;;7.03;;
77581;SDS011;66726;52.388;9.986;2023-05-23T10:18:02;12.03;;;6.47;;
77581;SDS011;66726;52.388;9.986;2023-05-23T10:20:46;10.73;;;5.93;;
77581;SDS011;66726;52.388;9.986;2023-05-23T10:23:25;10.33;;;5.83;;
77581;SDS011;66726;52.388;9.986;2023-05-23T10:26:00;11.93;;;6.10;;
77581;SDS011;66726;52.388;9.986;2023-05-23T10:28:36;9.53;;;5.47;;
77581;SDS011;66726;52.388;9.986;2023-05-23T10:31:10;8.43;;;4.90;;
77581;SDS011;66726;52.388;9.986;2023-05-23T10:33:47;9.50;;;4.40;;
77581;SDS011;66726;52.388;9.986;2023-05-23T10:36:27;5.80;;;4.20;;
77581;SDS011;66726;52.388;9.986;2023-05-23T10:39:11;6.80;;;4.30;;
77581;SDS011;66726;52.388;9.986;2023-05-23T10:41:57;7.60;;;4.13;;
77581;SDS011;66726;52.388;9.986;2023-05-23T10:44:38;10.43;;;5.97;;
77581;SDS011;66726;52.388;9.986;2023-05-23T10:47:12;8.27;;;3.87;;
77581;SDS011;66726;52.388;9.986;2023-05-23T10:49:58;6.50;;;3.83;;
77581;SDS011;66726;52.388;9.986;2023-05-23T10:52:37;7.27;;;3.60;;
77581;SDS011;66726;52.388;9.986;2023-05-23T10:55:15;6.13;;;3.47;;
77581;SDS011;66726;52.388;9.986;2023-05-23T11:00:53;5.93;;;3.20;;
77581;SDS011;66726;52.388;9.986;2023-05-23T11:03:33;9.53;;;3.73;;
77581;SDS011;66726;52.388;9.986;2023-05-23T11:06:30;6.13;;;3.47;;
77581;SDS011;66726;52.388;9.986;2023-05-23T11:09:11;8.20;;;4.17;;
77581;SDS011;66726;52.388;9.986;2023-05-23T11:11:54;10.53;;;4.10;;
77581;SDS011;66726;52.388;9.986;2023-05-23T11:14:50;8.57;;;4.37;;
77581;SDS011;66726;52.388;9.986;2023-05-23T11:17:30;8.57;;;4.50;;
77581;SDS011;66726;52.388;9.986;2023-05-23T11:20:04;9.57;;;4.70;;
77581;SDS011;66726;52.388;9.986;2023-05-23T11:22:51;11.10;;;4.43;;
77581;SDS011;66726;52.388;9.986;2023-05-23T11:25:39;10.47;;;4.50;;
77581;SDS011;66726;52.388;9.986;2023-05-23T11:28:16;11.97;;;5.03;;
77581;SDS011;66726;52.388;9.986;2023-05-23T11:30:50;12.43;;;4.90;;
77581;SDS011;66726;52.388;9.986;2023-05-23T11:33:24;12.67;;;5.17;;
77581;SDS011;66726;52.388;9.986;2023-05-23T11:36:00;10.90;;;5.10;;
77581;SDS011;66726;52.388;9.986;2023-05-23T11:38:37;13.47;;;5.47;;
77581;SDS011;66726;52.388;9.986;2023-05-23T11:41:10;14.10;;;5.07;;
77581;SDS011;66726;52.388;9.986;2023-05-23T11:43:50;14.80;;;5.53;;
77581;SDS011;66726;52.388;9.986;2023-05-23T11:46:26;17.20;;;5.87;;
77581;SDS011;66726;52.388;9.986;2023-05-23T11:49:00;16.80;;;6.37;;
77581;SDS011;66726;52.388;9.986;2023-05-23T11:51:40;17.30;;;5.70;;
77581;SDS011;66726;52.388;9.986;2023-05-23T11:54:14;17.40;;;6.47;;
77581;SDS011;66726;52.388;9.986;2023-05-23T11:56:51;13.53;;;6.07;;
77581;SDS011;66726;52.388;9.986;2023-05-23T11:59:26;20.40;;;6.47;;
77581;SDS011;66726;52.388;9.986;2023-05-23T12:02:00;19.00;;;6.73;;
77581;SDS011;66726;52.388;9.986;2023-05-23T12:04:35;17.70;;;6.13;;
77581;SDS011;66726;52.388;9.986;2023-05-23T12:07:09;15.83;;;6.37;;
77581;SDS011;66726;52.388;9.986;2023-05-23T12:09:47;17.73;;;5.73;;
77581;SDS011;66726;52.388;9.986;2023-05-23T12:12:23;12.70;;;6.10;;
77581;SDS011;66726;52.388;9.986;2023-05-23T12:14:58;17.13;;;5.87;;
77581;SDS011;66726;52.388;9.986;2023-05-23T12:17:34;15.67;;;5.90;;
77581;SDS011;66726;52.388;9.986;2023-05-23T12:20:11;12.97;;;5.63;;
77581;SDS011;66726;52.388;9.986;2023-05-23T12:22:45;14.67;;;5.87;;
77581;SDS011;66726;52.388;9.986;2023-05-23T12:25:18;15.50;;;5.97;;
77581;SDS011;66726;52.388;9.986;2023-05-23T12:27:52;18.13;;;6.30;;
77581;SDS011;66726;52.388;9.986;2023-05-23T12:30:27;12.80;;;5.97;;
77581;SDS011;66726;52.388;9.986;2023-05-23T12:33:11;15.03;;;5.27;;
77581;SDS011;66726;52.388;9.986;2023-05-23T12:35:45;14.20;;;5.40;;
77581;SDS011;66726;52.388;9.986;2023-05-23T12:38:19;16.83;;;5.03;;
77581;SDS011;66726;52.388;9.986;2023-05-23T12:41:08;13.83;;;4.90;;
77581;SDS011;66726;52.388;9.986;2023-05-23T12:43:51;13.47;;;5.07;;
77581;SDS011;66726;52.388;9.986;2023-05-23T12:46:26;10.97;;;4.53;;
77581;SDS011;66726;52.388;9.986;2023-05-23T12:48:59;11.07;;;4.37;;
77581;SDS011;66726;52.388;9.986;2023-05-23T12:51:33;11.87;;;4.27;;
77581;SDS011;66726;52.388;9.986;2023-05-23T12:54:06;14.90;;;4.90;;
77581;SDS011;66726;52.388;9.986;2023-05-23T12:56:40;18.50;;;4.83;;
77581;SDS011;66726;52.388;9.986;2023-05-23T12:59:13;16.13;;;4.90;;
77581;SDS011;66726;52.388;9.986;2023-05-23T13:01:47;16.43;;;5.07;;
77581;SDS011;66726;52.388;9.986;2023-05-23T13:04:21;13.17;;;4.77;;
77581;SDS011;66726;52.388;9.986;2023-05-23T13:06:56;17.63;;;5.17;;
77581;SDS011;66726;52.388;9.986;2023-05-23T13:09:30;13.93;;;5.00;;
77581;SDS011;66726;52.388;9.986;2023-05-23T13:12:03;15.30;;;5.47;;
77581;SDS011;66726;52.388;9.986;2023-05-23T13:14:40;17.63;;;5.40;;
77581;SDS011;66726;52.388;9.986;2023-05-23T13:17:13;13.73;;;4.80;;
77581;SDS011;66726;52.388;9.986;2023-05-23T13:19:47;14.43;;;5.30;;
77581;SDS011;66726;52.388;9.986;2023-05-23T13:22:20;12.10;;;4.47;;
77581;SDS011;66726;52.388;9.986;2023-05-23T13:24:54;13.80;;;4.80;;
77581;SDS011;66726;52.388;9.986;2023-05-23T13:27:27;11.83;;;4.23;;
77581;SDS011;66726;52.388;9.986;2023-05-23T13:30:00;13.90;;;4.73;;
77581;SDS011;66726;52.388;9.986;2023-05-23T13:32:36;12.20;;;4.70;;
77581;SDS011;66726;52.388;9.986;2023-05-23T13:35:11;12.83;;;4.40;;
77581;SDS011;66726;52.388;9.986;2023-05-23T13:37:45;12.17;;;4.57;;
77581;SDS011;66726;52.388;9.986;2023-05-23T13:40:20;10.43;;;3.87;;
77581;SDS011;66726;52.388;9.986;2023-05-23T13:42:54;10.57;;;4.50;;
77581;SDS011;66726;52.388;9.986;2023-05-23T13:45:27;10.97;;;4.20;;
77581;SDS011;66726;52.388;9.986;2023-05-23T13:48:01;12.20;;;4.00;;
77581;SDS011;66726;52.388;9.986;2023-05-23T13:50:34;10.77;;;4.30;;
77581;SDS011;66726;52.388;9.986;2023-05-23T13:53:08;14.80;;;5.13;;
77581;SDS011;66726;52.388;9.986;2023-05-23T13:55:43;16.80;;;5.00;;
77581;SDS011;66726;52.388;9.986;2023-05-23T13:58:17;14.83;;;4.47;;
77581;SDS011;66726;52.388;9.986;2023-05-23T14:00:50;14.33;;;4.80;;
77581;SDS011;66726;52.388;9.986;2023-05-23T14:03:24;17.67;;;5.23;;
77581;SDS011;66726;52.388;9.986;2023-05-23T14:05:58;16.67;;;4.73;;
77581;SDS011;66726;52.388;9.986;2023-05-23T14:08:31;15.67;;;5.00;;
77581;SDS011;66726;52.388;9.986;2023-05-23T14:11:05;14.37;;;4.90;;
77581;SDS011;66726;52.388;9.986;2023-05-23T14:13:39;11.97;;;4.67;;
77581;SDS011;66726;52.388;9.986;2023-05-23T14:16:12;15.93;;;5.30;;
77581;SDS011;66726;52.388;9.986;2023-05-23T14:18:45;11.50;;;4.63;;
77581;SDS011;66726;52.388;9.986;2023-05-23T14:21:19;14.40;;;4.53;;
77581;SDS011;66726;52.388;9.986;2023-05-23T14:23:53;15.47;;;5.63;;
77581;SDS011;66726;52.388;9.986;2023-05-23T14:26:26;11.40;;;4.93;;
77581;SDS011;66726;52.388;9.986;2023-05-23T14:28:59;15.63;;;5.00;;
77581;SDS011;66726;52.388;9.986;2023-05-23T14:31:33;13.93;;;4.77;;
77581;SDS011;66726;52.388;9.986;2023-05-23T14:34:06;16.27;;;4.27;;
77581;SDS011;66726;52.388;9.986;2023-05-23T14:36:40;13.33;;;5.00;;
77581;SDS011;66726;52.388;9.986;2023-05-23T14:39:13;17.43;;;4.97;;
77581;SDS011;66726;52.388;9.986;2023-05-23T14:41:46;14.20;;;4.67;;
77581;SDS011;66726;52.388;9.986;2023-05-23T14:44:20;14.80;;;4.53;;
77581;SDS011;66726;52.388;9.986;2023-05-23T14:46:54;14.63;;;4.60;;
77581;SDS011;66726;52.388;9.986;2023-05-23T14:49:28;14.47;;;4.03;;
77581;SDS011;66726;52.388;9.986;2023-05-23T14:52:01;14.33;;;4.47;;
77581;SDS011;66726;52.388;9.986;2023-05-23T14:54:34;15.73;;;4.13;;
77581;SDS011;66726;52.388;9.986;2023-05-23T14:57:08;14.83;;;4.80;;
77581;SDS011;66726;52.388;9.986;2023-05-23T14:59:41;12.33;;;4.00;;
77581;SDS011;66726;52.388;9.986;2023-05-23T15:02:15;12.10;;;3.97;;
77581;SDS011;66726;52.388;9.986;2023-05-23T15:04:48;12.60;;;4.03;;
77581;SDS011;66726;52.388;9.986;2023-05-23T15:07:22;13.93;;;3.87;;
77581;SDS011;66726;52.388;9.986;2023-05-23T15:09:55;9.33;;;3.97;;
77581;SDS011;66726;52.388;9.986;2023-05-23T15:12:28;14.50;;;4.10;;
77581;SDS011;66726;52.388;9.986;2023-05-23T15:15:02;12.90;;;3.70;;
77581;SDS011;66726;52.388;9.986;2023-05-23T15:17:37;11.23;;;3.70;;
77581;SDS011;66726;52.388;9.986;2023-05-23T15:20:12;15.60;;;3.87;;